createdAt,value
2023-05-10T00:01:22.872Z,9.15
2023-05-10T00:06:24.839Z,9.11
2023-05-10T00:11:26.781Z,9.15
2023-05-10T00:16:28.777Z,9.13
2023-05-10T00:21:30.790Z,9.10
2023-05-10T00:26:32.727Z,9.03
2023-05-10T00:31:34.754Z,9.00
2023-05-10T00:36:36.720Z,9.02
2023-05-10T00:41:38.636Z,9.01
2023-05-10T00:46:40.591Z,9.01
2023-05-10T00:51:42.511Z,8.99
2023-05-10T00:56:44.438Z,9.04
2023-05-10T01:01:46.672Z,9.03
2023-05-10T01:06:48.712Z,8.99
2023-05-10T01:11:50.586Z,8.94
2023-05-10T01:16:52.587Z,9.00
2023-05-10T01:22:03.319Z,9.03
2023-05-10T01:27:33.524Z,9.00
2023-05-10T01:32:55.278Z,8.98
2023-05-10T01:38:13.582Z,8.99
2023-05-10T01:43:20.578Z,8.96
2023-05-10T01:48:22.584Z,8.88
2023-05-10T01:53:24.532Z,8.91
2023-05-10T01:58:31.540Z,8.90
2023-05-10T02:03:33.676Z,8.93
2023-05-10T02:08:35.530Z,8.94
2023-05-10T02:13:37.332Z,8.89
2023-05-10T02:18:39.271Z,8.93
2023-05-10T02:23:41.339Z,8.99
2023-05-10T02:28:43.288Z,8.97
2023-05-10T02:33:45.193Z,8.99
2023-05-10T02:38:47.012Z,9.00
2023-05-10T02:43:49.378Z,8.94
2023-05-10T02:48:51.250Z,9.00
2023-05-10T02:53:53.138Z,9.01
2023-05-10T02:58:55.005Z,9.13
2023-05-10T03:03:56.918Z,9.10
2023-05-10T03:08:58.742Z,9.14
2023-05-10T03:14:26.307Z,9.13
2023-05-10T03:19:33.687Z,9.12
2023-05-10T03:24:35.722Z,9.20
2023-05-10T03:29:37.552Z,9.33
2023-05-10T03:34:42.897Z,9.52
2023-05-10T03:39:44.917Z,9.63
2023-05-10T03:44:46.776Z,9.76
2023-05-10T03:49:48.639Z,9.93
2023-05-10T03:54:50.558Z,9.97
2023-05-10T03:59:52.456Z,10.18
2023-05-10T04:04:54.369Z,10.40
2023-05-10T04:09:56.281Z,10.49
2023-05-10T04:14:58.272Z,10.60
2023-05-10T04:20:00.233Z,10.75
2023-05-10T04:25:02.128Z,10.94
2023-05-10T04:30:06.772Z,11.22
2023-05-10T04:35:09.566Z,11.54
2023-05-10T04:40:11.860Z,11.69
2023-05-10T04:45:13.796Z,12.03
2023-05-10T04:50:16.013Z,12.36
2023-05-10T04:55:18.249Z,12.95
2023-05-10T05:00:20.544Z,13.53
2023-05-10T05:05:22.492Z,14.03
2023-05-10T05:10:24.392Z,14.46
2023-05-10T05:15:26.318Z,14.55
2023-05-10T05:20:28.196Z,14.90
2023-05-10T05:25:30.093Z,15.15
2023-05-10T05:30:32.061Z,15.28
2023-05-10T05:35:34.175Z,15.74
2023-05-10T05:40:36.091Z,15.91
2023-05-10T05:45:38.029Z,16.01
2023-05-10T05:50:39.938Z,16.11
2023-05-10T05:55:41.749Z,16.01
2023-05-10T06:00:43.657Z,16.39
2023-05-10T06:05:45.538Z,16.70
2023-05-10T06:10:47.461Z,16.81
2023-05-10T06:15:49.299Z,16.87
2023-05-10T06:20:51.415Z,16.81
2023-05-10T06:25:53.440Z,16.66
2023-05-10T06:30:55.367Z,17.04
2023-05-10T06:35:57.240Z,17.32
2023-05-10T06:40:59.124Z,17.65
2023-05-10T06:46:01.191Z,18.04
2023-05-10T06:51:03.161Z,17.97
2023-05-10T06:56:05.181Z,17.62
2023-05-10T07:01:07.054Z,17.04
2023-05-10T07:06:15.656Z,17.02
2023-05-10T07:11:20.590Z,17.31
2023-05-10T07:16:22.563Z,17.30
2023-05-10T07:21:24.489Z,17.49
2023-05-10T07:26:26.372Z,18.17
2023-05-10T07:31:28.170Z,19.25
2023-05-10T07:36:29.996Z,19.83
2023-05-10T07:41:31.815Z,21.19
2023-05-10T07:46:33.701Z,22.24
2023-05-10T07:51:35.608Z,23.30
2023-05-10T07:56:37.231Z,23.57
2023-05-10T08:01:39.053Z,23.36
2023-05-10T08:06:41.333Z,23.03
2023-05-10T08:11:43.297Z,21.35
2023-05-10T08:16:44.953Z,19.47
2023-05-10T08:21:46.952Z,18.36
2023-05-10T08:26:48.667Z,17.44
2023-05-10T08:31:50.603Z,17.32
2023-05-10T08:36:52.493Z,16.83
2023-05-10T08:41:54.847Z,16.65
2023-05-10T08:46:56.678Z,16.77
2023-05-10T08:51:58.603Z,16.79
2023-05-10T08:57:00.471Z,16.91
2023-05-10T09:02:02.395Z,17.40
2023-05-10T09:07:04.313Z,18.11
2023-05-10T09:12:06.406Z,18.63
2023-05-10T09:17:08.316Z,18.79
2023-05-10T09:22:10.318Z,18.53
2023-05-10T09:27:12.323Z,18.24
2023-05-10T09:32:14.152Z,17.86
2023-05-10T09:37:16.006Z,18.10
2023-05-10T09:42:19.309Z,18.24
2023-05-10T09:47:21.216Z,17.88
2023-05-10T09:52:23.101Z,18.52
2023-05-10T09:57:25.336Z,18.95
2023-05-10T10:02:29.897Z,19.06
2023-05-10T10:07:31.765Z,19.28
2023-05-10T10:12:33.621Z,19.79
2023-05-10T10:17:36.609Z,20.00
2023-05-10T10:22:38.740Z,19.62
2023-05-10T10:27:46.396Z,19.28
2023-05-10T10:33:28.703Z,18.88
2023-05-10T10:38:48.982Z,18.95
2023-05-10T10:43:50.861Z,18.94
2023-05-10T10:49:09.937Z,19.56
2023-05-10T10:54:12.460Z,19.96
2023-05-10T10:59:14.297Z,19.93
2023-05-10T11:04:19.692Z,19.93
2023-05-10T11:09:21.659Z,19.41
2023-05-10T11:14:23.511Z,19.51
2023-05-10T11:19:26.057Z,18.97
2023-05-10T11:24:29.413Z,19.32
2023-05-10T11:29:31.047Z,19.18
2023-05-10T11:34:33.008Z,18.91
2023-05-10T11:39:34.695Z,18.64
2023-05-10T11:44:36.487Z,18.76
2023-05-10T11:49:38.415Z,18.94
2023-05-10T11:54:53.170Z,18.64
2023-05-10T11:59:55.280Z,18.79
2023-05-10T12:04:56.954Z,18.75
2023-05-10T12:10:08.737Z,18.24
2023-05-10T12:15:23.497Z,17.77
2023-05-10T12:20:28.013Z,17.98
2023-05-10T12:25:37.028Z,17.96
2023-05-10T12:30:39.177Z,18.07
2023-05-10T12:35:54.557Z,18.13
2023-05-10T12:41:01.369Z,18.07
2023-05-10T12:46:08.458Z,17.88
2023-05-10T12:51:11.072Z,18.30
2023-05-10T12:56:13.037Z,18.11
2023-05-10T13:01:15.552Z,17.80
2023-05-10T13:06:17.475Z,18.23
2023-05-10T13:11:19.397Z,18.25
2023-05-10T13:16:21.525Z,18.45
2023-05-10T13:21:23.222Z,18.26
2023-05-10T13:26:25.113Z,18.48
2023-05-10T13:31:26.981Z,18.54
2023-05-10T13:36:29.016Z,18.31
2023-05-10T13:41:30.858Z,18.15
2023-05-10T13:46:33.073Z,18.30
2023-05-10T13:51:34.929Z,17.77
2023-05-10T13:56:37.774Z,17.82
2023-05-10T14:01:39.799Z,17.61
2023-05-10T14:06:41.745Z,17.51
2023-05-10T14:11:43.554Z,17.59
2023-05-10T14:16:45.794Z,17.36
2023-05-10T14:21:47.563Z,17.04
2023-05-10T14:26:49.429Z,16.99
2023-05-10T14:31:51.377Z,16.98
2023-05-10T14:36:53.303Z,17.04
2023-05-10T14:41:55.158Z,16.71
2023-05-10T14:46:56.983Z,16.79
2023-05-10T14:51:58.804Z,16.80
2023-05-10T14:57:00.713Z,16.92
2023-05-10T15:02:02.650Z,16.71
2023-05-10T15:07:04.584Z,16.33
2023-05-10T15:12:06.521Z,16.60
2023-05-10T15:17:08.505Z,16.46
2023-05-10T15:22:10.582Z,16.38
2023-05-10T15:27:12.756Z,16.39
2023-05-10T15:32:14.753Z,16.37
2023-05-10T15:37:16.553Z,16.34
2023-05-10T15:42:18.462Z,16.41
2023-05-10T15:47:20.397Z,16.43
2023-05-10T15:52:22.313Z,16.29
2023-05-10T15:57:24.231Z,16.25
2023-05-10T16:02:26.283Z,16.13
2023-05-10T16:07:28.202Z,16.04
2023-05-10T16:12:32.579Z,15.91
2023-05-10T16:17:34.520Z,15.87
2023-05-10T16:22:36.489Z,15.78
2023-05-10T16:27:38.409Z,15.59
2023-05-10T16:32:40.435Z,15.43
2023-05-10T16:37:42.412Z,15.36
2023-05-10T16:42:44.433Z,15.30
2023-05-10T16:47:46.548Z,15.29
2023-05-10T16:52:48.836Z,15.22
2023-05-10T16:57:50.723Z,15.17
2023-05-10T17:02:52.827Z,15.13
2023-05-10T17:07:54.730Z,15.15
2023-05-10T17:12:56.694Z,15.12
2023-05-10T17:17:58.680Z,15.05
2023-05-10T17:23:00.595Z,15.01
2023-05-10T17:28:03.357Z,14.98
2023-05-10T17:33:05.366Z,14.97
2023-05-10T17:38:07.473Z,14.93
2023-05-10T17:43:09.398Z,14.90
2023-05-10T17:48:11.530Z,14.76
2023-05-10T17:53:13.482Z,14.74
2023-05-10T17:58:15.411Z,14.73
2023-05-10T18:03:17.252Z,14.61
2023-05-10T18:08:19.137Z,14.57
2023-05-10T18:13:21.072Z,14.50
2023-05-10T18:18:23.014Z,14.50
2023-05-10T18:23:25.005Z,14.52
2023-05-10T18:28:26.828Z,14.50
2023-05-10T18:33:28.692Z,14.41
2023-05-10T18:38:30.609Z,14.37
2023-05-10T18:43:32.681Z,14.31
2023-05-10T18:48:34.680Z,14.30
2023-05-10T18:53:37.277Z,14.17
2023-05-10T18:58:39.242Z,14.00
2023-05-10T19:03:41.194Z,13.81
2023-05-10T19:08:43.027Z,13.69
2023-05-10T19:13:45.588Z,13.63
2023-05-10T19:18:47.599Z,13.66
2023-05-10T19:23:49.627Z,13.67
2023-05-10T19:28:51.756Z,13.68
2023-05-10T19:33:53.790Z,13.69
2023-05-10T19:38:55.904Z,13.73
2023-05-10T19:43:57.753Z,13.76
2023-05-10T19:48:59.640Z,13.75
2023-05-10T19:54:01.626Z,13.77
2023-05-10T19:59:03.483Z,13.77
2023-05-10T20:04:05.473Z,13.79
2023-05-10T20:09:07.431Z,13.79
2023-05-10T20:14:09.378Z,13.80
2023-05-10T20:19:11.523Z,13.80
2023-05-10T20:24:13.694Z,13.80
2023-05-10T20:29:15.716Z,13.73
2023-05-10T20:34:17.657Z,13.70
2023-05-10T20:39:19.644Z,13.67
2023-05-10T20:44:21.578Z,13.60
2023-05-10T20:49:23.550Z,13.52
2023-05-10T20:54:25.426Z,13.47
2023-05-10T20:59:27.263Z,13.46
2023-05-10T21:04:29.315Z,13.36
2023-05-10T21:09:31.216Z,13.26
2023-05-10T21:14:33.085Z,13.18
2023-05-10T21:19:34.925Z,13.19
2023-05-10T21:24:36.828Z,13.20
2023-05-10T21:29:38.797Z,13.20
2023-05-10T21:34:40.622Z,13.09
2023-05-10T21:39:42.416Z,13.05
2023-05-10T21:44:44.290Z,13.06
2023-05-10T21:49:46.173Z,13.03
2023-05-10T21:54:48.073Z,12.99
2023-05-10T21:59:49.942Z,12.93
2023-05-10T22:04:51.816Z,12.78
2023-05-10T22:09:53.678Z,12.75
2023-05-10T22:15:09.505Z,12.72
2023-05-10T22:20:12.210Z,12.67
2023-05-10T22:25:14.213Z,12.57
2023-05-10T22:30:16.389Z,12.54
2023-05-10T22:35:18.526Z,12.50
2023-05-10T22:40:20.417Z,12.48
2023-05-10T22:45:22.574Z,12.45
2023-05-10T22:50:24.438Z,12.35
2023-05-10T22:55:26.408Z,12.27
2023-05-10T23:00:28.331Z,12.29
2023-05-10T23:05:30.235Z,12.30
2023-05-10T23:10:32.258Z,12.31
2023-05-10T23:15:34.301Z,12.32
2023-05-10T23:20:36.135Z,12.31
2023-05-10T23:25:38.322Z,12.38
2023-05-10T23:30:40.258Z,12.35
2023-05-10T23:35:42.614Z,12.36
2023-05-10T23:40:48.130Z,12.40
2023-05-10T23:45:56.459Z,12.36
2023-05-10T23:50:58.468Z,12.38
2023-05-10T23:56:00.286Z,12.38
